Time;durP1;ratioP1;P1;durP2;ratioP2;P2;SDS_P1;SDS_P2;PMS_P1;PMS_P2;Temp;Humidity;BMP_temperature;BMP_pressure;BME280_temperature;BME280_humidity;BME280_pressure;Samples;Min_cycle;Max_cycle;Signal;HPM_P1;HPM_P2
2023/09/23 00:01:35;;;;;;;0.43;0.43;;;;;;;13.57;88.68;98276.34;5114308;27;41895;-83
2023/09/23 00:04:02;;;;;;;0.50;0.50;;;;;;;13.56;88.60;98271.16;5131242;27;42398;-83
2023/09/23 00:06:30;;;;;;;1.43;0.60;;;;;;;13.53;88.53;98268.75;5132305;27;40067;-84
2023/09/23 00:09:00;;;;;;;2.17;0.80;;;;;;;13.46;88.50;98256.94;5113915;27;40991;-83
2023/09/23 00:11:28;;;;;;;0.60;0.60;;;;;;;13.42;88.46;98235.06;5132268;27;42741;-82
2023/09/23 00:13:56;;;;;;;0.73;0.50;;;;;;;13.48;88.70;98257.63;5115161;27;41278;-83
2023/09/23 00:16:23;;;;;;;0.60;0.60;;;;;;;13.47;88.83;98264.78;5132928;27;40521;-84
2023/09/23 00:18:53;;;;;;;0.50;0.50;;;;;;;13.47;88.95;98269.25;5133324;27;41826;-84
2023/09/23 00:21:21;;;;;;;2.00;0.70;;;;;;;13.36;88.13;98261.31;5132229;27;41710;-84
2023/09/23 00:23:48;;;;;;;0.70;0.57;;;;;;;13.44;88.53;98274.84;5115328;27;41209;-83
2023/09/23 00:26:17;;;;;;;0.90;0.37;;;;;;;13.43;88.23;98275.81;5115985;27;39896;-84
2023/09/23 00:28:51;;;;;;;0.53;0.43;;;;;;;13.31;87.56;98256.41;5118796;27;42612;-84
2023/09/23 00:31:19;;;;;;;2.03;0.60;;;;;;;13.40;87.50;98276.91;5136399;27;42860;-84
2023/09/23 00:33:48;;;;;;;0.73;0.70;;;;;;;13.28;87.05;98254.81;5102425;27;41341;-83
2023/09/23 00:36:19;;;;;;;1.53;0.53;;;;;;;13.23;87.59;98251.69;5136506;27;40115;-83
2023/09/23 00:38:47;;;;;;;0.40;0.40;;;;;;;13.34;87.52;98273.91;5118983;27;40567;-84
2023/09/23 00:41:15;;;;;;;1.60;0.60;;;;;;;13.29;87.18;98296.41;5118515;27;42740;-84
2023/09/23 00:43:43;;;;;;;0.83;0.50;;;;;;;13.27;87.48;98290.38;5116871;27;41357;-84
2023/09/23 00:46:11;;;;;;;0.80;0.50;;;;;;;13.16;87.35;98287.75;5135199;27;40824;-84
2023/09/23 00:48:41;;;;;;;0.87;0.60;;;;;;;13.24;87.28;98301.25;5117062;27;40323;-83
2023/09/23 00:51:09;;;;;;;1.13;0.70;;;;;;;13.23;87.64;98302.22;5135742;27;42545;-83
2023/09/23 00:53:39;;;;;;;0.40;0.40;;;;;;;13.24;87.26;98300.41;5134027;27;42970;-83
2023/09/23 00:56:09;;;;;;;0.33;0.30;;;;;;;13.27;87.15;98298.34;5117531;27;38821;-83
2023/09/23 00:58:37;;;;;;;0.73;0.60;;;;;;;13.23;87.29;98282.75;5134205;27;41803;-84
2023/09/23 01:01:08;;;;;;;1.50;0.40;;;;;;;13.27;87.23;98273.56;5134744;27;42713;-83
2023/09/23 01:03:39;;;;;;;0.50;0.50;;;;;;;13.45;86.97;98289.81;5116946;27;42207;-83
2023/09/23 01:06:15;;;;;;;1.23;0.50;;;;;;;13.24;87.07;98253.38;5131391;27;40084;-84
2023/09/23 01:08:46;;;;;;;0.70;0.63;;;;;;;13.56;86.92;98292.44;5117037;27;41018;-84
2023/09/23 01:11:16;;;;;;;1.57;0.53;;;;;;;13.60;86.49;98291.19;5134294;27;41733;-84
2023/09/23 01:13:50;;;;;;;1.50;0.60;;;;;;;13.64;86.33;98295.28;5117259;27;42181;-84
2023/09/23 01:16:17;;;;;;;1.60;0.60;;;;;;;13.56;86.21;98279.97;5118813;27;40863;-84
2023/09/23 01:18:48;;;;;;;0.40;0.40;;;;;;;13.56;86.16;98285.28;5118057;27;41794;-84
2023/09/23 01:21:16;;;;;;;2.07;0.70;;;;;;;13.68;86.34;98303.84;5118094;27;41704;-84
2023/09/23 01:23:46;;;;;;;1.43;0.63;;;;;;;13.60;86.49;98280.53;5134963;27;42539;-84
2023/09/23 01:26:14;;;;;;;0.90;0.70;;;;;;;13.66;86.45;98282.69;5135421;27;40206;-83
2023/09/23 01:28:42;;;;;;;1.07;0.60;;;;;;;13.77;86.25;98297.75;5135976;27;42612;-83
2023/09/23 01:31:10;;;;;;;1.23;0.60;;;;;;;13.68;86.74;98283.41;5135260;27;42868;-83
2023/09/23 01:33:38;;;;;;;0.90;0.60;;;;;;;13.80;86.42;98309.00;5117739;27;41597;-83
2023/09/23 01:36:07;;;;;;;1.23;0.87;;;;;;;13.68;86.41;98278.09;5117877;27;39022;-83
2023/09/23 01:38:34;;;;;;;3.30;0.70;;;;;;;13.84;86.78;98305.13;5116498;27;43435;-83
2023/09/23 01:41:04;;;;;;;1.30;0.80;;;;;;;13.84;86.09;98305.13;5117515;27;42007;-84
2023/09/23 01:43:32;;;;;;;1.33;0.70;;;;;;;13.80;86.15;98303.66;5115647;27;40847;-83
2023/09/23 01:46:03;;;;;;;1.03;0.50;;;;;;;13.75;86.57;98305.00;5117132;27;38579;-83
2023/09/23 01:48:31;;;;;;;0.60;0.60;;;;;;;13.72;86.53;98305.31;5116357;27;41026;-83
2023/09/23 01:50:59;;;;;;;0.60;0.60;;;;;;;13.73;86.54;98306.97;5137474;27;41640;-83
2023/09/23 01:53:27;;;;;;;1.00;0.50;;;;;;;13.75;86.66;98311.19;5139114;27;41661;-83
2023/09/23 01:55:55;;;;;;;0.67;0.60;;;;;;;13.70;86.72;98291.28;5117059;27;38787;-83
2023/09/23 01:58:25;;;;;;;1.00;0.70;;;;;;;13.83;86.59;98305.25;5116185;27;40681;-83
2023/09/23 02:00:55;;;;;;;0.70;0.70;;;;;;;13.85;86.49;98314.75;5134009;27;43721;-83
2023/09/23 02:03:23;;;;;;;1.23;0.70;;;;;;;13.89;86.44;98324.19;5116264;27;41416;-83
2023/09/23 02:05:51;;;;;;;0.50;0.50;;;;;;;13.92;86.05;98329.25;5116215;27;41048;-82
2023/09/23 02:08:18;;;;;;;0.70;0.60;;;;;;;13.85;86.33;98317.41;5116579;27;40790;-83
2023/09/23 02:10:48;;;;;;;0.70;0.70;;;;;;;13.97;85.57;98335.00;5133931;27;42724;-83
2023/09/23 02:13:15;;;;;;;0.70;0.47;;;;;;;13.85;85.24;98324.56;5135167;27;42341;-83
2023/09/23 02:15:45;;;;;;;0.50;0.50;;;;;;;13.81;85.10;98334.63;5134561;27;40180;-83
2023/09/23 02:18:14;;;;;;;0.50;0.47;;;;;;;13.86;85.29;98360.84;5117175;27;40644;-83
2023/09/23 02:20:43;;;;;;;0.93;0.50;;;;;;;13.71;85.08;98355.00;5135729;27;43779;-82
2023/09/23 02:23:11;;;;;;;0.60;0.60;;;;;;;13.72;85.16;98380.66;5134058;27;41278;-82
2023/09/23 02:25:38;;;;;;;1.77;0.60;;;;;;;13.69;85.24;98383.56;5134102;27;39201;-82
2023/09/23 02:28:06;;;;;;;0.60;0.50;;;;;;;13.61;85.08;98372.69;5116134;27;41472;-83
2023/09/23 02:30:33;;;;;;;0.70;0.67;;;;;;;13.65;85.18;98395.41;5116826;27;41801;-83
2023/09/23 02:33:03;;;;;;;0.90;0.80;;;;;;;13.63;85.13;98405.34;5133927;27;42300;-82
2023/09/23 02:35:30;;;;;;;2.87;0.57;;;;;;;13.36;84.87;98359.72;5134211;27;40128;-83
2023/09/23 02:37:58;;;;;;;0.40;0.40;;;;;;;13.54;84.64;98398.13;5133732;27;42671;-83
2023/09/23 02:40:27;;;;;;;0.53;0.53;;;;;;;13.67;84.33;98414.78;5116836;27;41923;-83
2023/09/23 02:42:59;;;;;;;0.67;0.40;;;;;;;13.71;84.30;98413.56;5114431;27;41130;-82
2023/09/23 02:45:27;;;;;;;0.50;0.50;;;;;;;13.75;84.51;98412.31;5115706;27;39705;-83
2023/09/23 02:47:54;;;;;;;0.70;0.70;;;;;;;13.77;84.22;98414.84;5132479;27;42511;-83
2023/09/23 02:50:23;;;;;;;0.60;0.60;;;;;;;13.82;83.90;98418.00;5115044;27;41512;-83
2023/09/23 02:52:51;;;;;;;1.17;0.60;;;;;;;13.72;83.69;98417.06;5114469;27;40959;-83
2023/09/23 02:55:22;;;;;;;1.23;0.70;;;;;;;13.73;83.56;98416.91;5129717;27;40955;-83
2023/09/23 02:57:52;;;;;;;0.60;0.60;;;;;;;13.60;83.76;98413.56;5114967;27;41923;-82
2023/09/23 03:00:24;;;;;;;0.50;0.50;;;;;;;13.60;83.89;98435.69;5115319;27;41932;-82
2023/09/23 03:02:54;;;;;;;0.47;0.47;;;;;;;13.54;83.67;98440.69;5114696;27;42379;-83
2023/09/23 03:05:28;;;;;;;0.83;0.60;;;;;;;13.46;83.90;98459.09;5129442;27;39802;-83
2023/09/23 03:07:58;;;;;;;0.50;0.50;;;;;;;13.39;83.73;98460.53;5115507;27;40559;-83
2023/09/23 03:10:34;;;;;;;0.40;0.40;;;;;;;13.32;83.70;98469.97;5114956;27;41697;-83
2023/09/23 03:13:06;;;;;;;0.43;0.43;;;;;;;13.25;83.94;98473.13;5115642;27;41208;-83
2023/09/23 03:15:41;;;;;;;0.50;0.50;;;;;;;13.27;83.91;98471.19;5116820;27;39139;-82
2023/09/23 03:18:09;;;;;;;0.50;0.40;;;;;;;13.16;83.85;98457.91;5132908;27;40787;-82
2023/09/23 03:20:40;;;;;;;0.47;0.47;;;;;;;13.22;84.39;98469.88;5133201;27;42860;-82
2023/09/23 03:23:10;;;;;;;0.53;0.53;;;;;;;13.20;83.80;98477.97;5115881;27;42100;-82
2023/09/23 03:25:45;;;;;;;0.40;0.40;;;;;;;13.17;84.45;98475.56;5116271;27;39062;-83
2023/09/23 03:28:15;;;;;;;1.07;0.70;;;;;;;13.04;84.20;98461.50;5115662;27;40749;-83
2023/09/23 03:30:44;;;;;;;0.50;0.50;;;;;;;13.06;84.26;98483.50;5115818;27;41810;-82
2023/09/23 03:33:12;;;;;;;0.60;0.60;;;;;;;12.90;84.22;98465.25;5132769;27;41907;-83
2023/09/23 03:35:42;;;;;;;0.60;0.60;;;;;;;12.99;84.20;98486.75;5116340;27;39147;-83
2023/09/23 03:38:10;;;;;;;0.83;0.63;;;;;;;12.96;84.51;98490.50;5115773;27;40781;-83
2023/09/23 03:40:38;;;;;;;0.70;0.70;;;;;;;12.85;84.19;98487.84;5132596;27;42724;-83
2023/09/23 03:43:06;;;;;;;0.53;0.53;;;;;;;12.84;84.34;98491.47;5130837;27;42311;-83
2023/09/23 03:45:34;;;;;;;0.60;0.60;;;;;;;12.83;84.30;98500.41;5132002;27;41627;-82
2023/09/23 03:48:02;;;;;;;0.60;0.60;;;;;;;12.79;84.47;98504.25;5131405;27;42003;-82
2023/09/23 03:50:32;;;;;;;0.60;0.60;;;;;;;12.75;84.54;98505.44;5097803;27;42069;-83
2023/09/23 03:53:01;;;;;;;0.63;0.60;;;;;;;12.70;84.73;98503.16;5114062;27;41175;-82
2023/09/23 03:55:29;;;;;;;0.57;0.50;;;;;;;12.65;84.45;98499.97;5128797;27;40032;-82
2023/09/23 03:57:57;;;;;;;0.50;0.50;;;;;;;12.62;84.43;98510.00;5131493;27;42508;-82
2023/09/23 04:00:27;;;;;;;0.63;0.53;;;;;;;12.58;84.51;98512.06;5114235;27;41478;-83
2023/09/23 04:02:55;;;;;;;1.97;0.63;;;;;;;12.47;84.63;98507.56;5133150;27;42500;-82
2023/09/23 04:05:25;;;;;;;0.50;0.50;;;;;;;12.39;84.34;98493.16;5135155;27;40426;-83
2023/09/23 04:07:53;;;;;;;0.77;0.70;;;;;;;12.37;83.96;98489.75;5117674;27;40863;-82
2023/09/23 04:10:23;;;;;;;0.63;0.50;;;;;;;12.45;84.15;98519.25;5117949;27;42887;-82
2023/09/23 04:12:51;;;;;;;0.40;0.40;;;;;;;12.39;84.58;98515.25;5118170;27;41297;-82
2023/09/23 04:15:19;;;;;;;0.97;0.80;;;;;;;12.32;84.20;98516.69;5119005;27;38979;-82
2023/09/23 04:17:47;;;;;;;0.50;0.50;;;;;;;12.22;84.44;98502.41;5135968;27;42681;-82
2023/09/23 04:20:14;;;;;;;0.60;0.60;;;;;;;12.30;84.68;98526.56;5118876;27;41674;-82
2023/09/23 04:22:46;;;;;;;0.70;0.70;;;;;;;12.28;84.71;98523.16;5118565;27;41404;-82
2023/09/23 04:25:14;;;;;;;0.60;0.60;;;;;;;12.25;84.38;98520.72;5136275;27;38789;-81
2023/09/23 04:27:43;;;;;;;1.23;0.60;;;;;;;12.23;84.58;98528.84;5118391;27;40908;-82
2023/09/23 04:30:12;;;;;;;0.70;0.70;;;;;;;12.19;85.07;98529.16;5118718;27;43071;-82
2023/09/23 04:32:41;;;;;;;0.60;0.60;;;;;;;12.20;84.80;98536.19;5118291;27;40762;-82
2023/09/23 04:35:09;;;;;;;0.60;0.60;;;;;;;12.20;85.18;98541.50;5118730;27;40265;-83
2023/09/23 04:37:37;;;;;;;2.10;0.70;;;;;;;12.20;84.92;98538.84;5135854;27;40653;-82
2023/09/23 04:40:10;;;;;;;0.50;0.50;;;;;;;11.87;84.85;98487.25;5118656;27;43527;-82
2023/09/23 04:42:39;;;;;;;0.43;0.43;;;;;;;12.16;84.64;98547.97;5135567;27;41109;-82
2023/09/23 04:45:09;;;;;;;1.90;0.60;;;;;;;12.15;84.97;98548.94;5118468;27;39731;-82
2023/09/23 04:47:37;;;;;;;2.67;0.80;;;;;;;12.06;84.52;98533.69;5135400;27;40805;-82
2023/09/23 04:50:05;;;;;;;0.60;0.60;;;;;;;12.02;84.53;98540.19;5135318;27;43553;-82
2023/09/23 04:52:33;;;;;;;0.50;0.50;;;;;;;12.07;84.44;98553.97;5118143;27;41180;-82
2023/09/23 04:55:01;;;;;;;0.57;0.57;;;;;;;11.97;84.41;98542.34;5135361;27;38967;-82
2023/09/23 04:57:29;;;;;;;0.40;0.40;;;;;;;12.00;84.07;98558.84;5118060;27;42043;-82
2023/09/23 04:59:57;;;;;;;0.70;0.70;;;;;;;11.84;84.61;98535.28;5135379;27;41402;-82
2023/09/23 05:02:27;;;;;;;0.47;0.47;;;;;;;11.94;84.54;98551.38;5136359;27;42969;-82
2023/09/23 05:04:54;;;;;;;0.63;0.63;;;;;;;11.91;84.48;98551.56;5117561;27;39358;-82
2023/09/23 05:07:23;;;;;;;0.47;0.47;;;;;;;11.90;84.44;98559.66;5134936;27;41674;-82
2023/09/23 05:09:51;;;;;;;0.60;0.60;;;;;;;11.87;84.16;98566.88;5134620;27;41838;-82
2023/09/23 05:12:19;;;;;;;0.53;0.53;;;;;;;11.76;84.44;98553.53;5117674;27;42196;-82
2023/09/23 05:14:46;;;;;;;0.97;0.67;;;;;;;11.84;84.40;98577.72;5133590;27;38801;-82
2023/09/23 05:17:15;;;;;;;1.70;0.50;;;;;;;11.81;84.33;98582.41;5137008;27;40894;-81
2023/09/23 05:19:46;;;;;;;0.63;0.63;;;;;;;11.82;84.53;98584.94;5134698;27;41877;-80
2023/09/23 05:22:13;;;;;;;0.87;0.70;;;;;;;11.77;84.62;98571.16;5145865;27;42891;-82
2023/09/23 05:24:47;;;;;;;0.67;0.67;;;;;;;11.79;84.45;98582.50;5117862;27;40077;-83
2023/09/23 05:27:14;;;;;;;0.87;0.87;;;;;;;11.68;84.93;98565.63;5134590;27;40998;-82
2023/09/23 05:29:44;;;;;;;0.60;0.60;;;;;;;11.64;84.71;98558.84;5134518;27;42186;-82
2023/09/23 05:32:12;;;;;;;0.70;0.70;;;;;;;11.79;85.05;98584.31;5134424;27;41356;-82
2023/09/23 05:34:40;;;;;;;0.50;0.50;;;;;;;11.76;84.68;98585.38;5134532;27;40670;-81
2023/09/23 05:37:12;;;;;;;0.80;0.80;;;;;;;11.74;85.07;98581.97;5117528;27;40754;-82
2023/09/23 05:39:45;;;;;;;2.13;0.73;;;;;;;11.82;85.17;98595.56;5133994;27;42758;-82
2023/09/23 05:42:13;;;;;;;0.80;0.80;;;;;;;11.83;85.50;98602.56;5133299;27;42263;-82
2023/09/23 05:44:41;;;;;;;1.50;0.80;;;;;;;11.85;85.48;98605.94;5133057;27;40076;-82
2023/09/23 05:47:08;;;;;;;0.73;0.67;;;;;;;11.87;85.42;98611.97;5134110;27;41764;-82
2023/09/23 05:49:36;;;;;;;0.97;0.97;;;;;;;11.92;86.21;98616.13;5115910;27;42533;-82
2023/09/23 05:52:04;;;;;;;1.10;0.83;;;;;;;11.94;85.49;98625.66;5133131;27;41826;-82
2023/09/23 05:54:33;;;;;;;0.93;0.87;;;;;;;11.95;85.39;98618.56;5134128;27;40253;-82
2023/09/23 05:57:01;;;;;;;0.87;0.87;;;;;;;12.03;85.47;98634.75;5116129;27;41702;-83
2023/09/23 05:59:28;;;;;;;1.20;0.90;;;;;;;12.06;85.47;98650.47;5115901;27;41715;-82
2023/09/23 06:01:56;;;;;;;0.80;0.80;;;;;;;12.10;85.17;98641.34;5116107;27;41241;-84
2023/09/23 06:04:23;;;;;;;0.70;0.70;;;;;;;12.11;85.10;98649.19;5133293;27;38990;-82
2023/09/23 06:06:51;;;;;;;1.27;1.03;;;;;;;12.20;85.21;98659.16;5133036;27;40720;-83
2023/09/23 06:09:18;;;;;;;1.23;0.90;;;;;;;11.85;85.43;98603.31;5133763;27;42903;-81
2023/09/23 06:11:48;;;;;;;1.43;1.10;;;;;;;12.31;85.50;98676.94;5115571;27;41589;-82
2023/09/23 06:14:16;;;;;;;0.90;0.90;;;;;;;12.43;85.34;98684.03;5134150;27;41842;-83
2023/09/23 06:16:44;;;;;;;1.10;0.90;;;;;;;12.38;85.62;98656.94;5134315;27;40334;-84
2023/09/23 06:19:11;;;;;;;0.60;0.60;;;;;;;12.80;85.45;98678.66;5116935;27;41784;-82
2023/09/23 06:21:39;;;;;;;1.60;0.90;;;;;;;13.16;84.40;98683.91;5116933;27;41476;-83
2023/09/23 06:24:10;;;;;;;1.50;1.07;;;;;;;13.40;84.18;98704.28;5134053;27;42123;-84
2023/09/23 06:26:38;;;;;;;3.97;1.03;;;;;;;13.44;83.71;98701.28;5116227;27;40934;-85
2023/09/23 06:29:09;;;;;;;1.27;0.90;;;;;;;13.59;83.47;98707.25;5133601;27;43082;-82
2023/09/23 06:31:36;;;;;;;1.17;0.90;;;;;;;13.73;82.61;98706.16;5135061;27;41819;-84
2023/09/23 06:34:06;;;;;;;1.00;0.90;;;;;;;13.79;82.49;98711.84;5133668;27;39211;-83
2023/09/23 06:36:33;;;;;;;1.00;0.90;;;;;;;13.82;81.84;98721.41;5133511;27;41694;-82
2023/09/23 06:39:01;;;;;;;1.00;0.90;;;;;;;13.74;81.60;98706.03;5133258;27;41930;-83
2023/09/23 06:41:28;;;;;;;0.70;0.70;;;;;;;13.81;81.81;98696.63;5133008;27;41415;-83
2023/09/23 06:43:56;;;;;;;0.63;0.63;;;;;;;14.00;81.75;98731.47;5131791;27;39876;-83
2023/09/23 06:46:25;;;;;;;1.23;1.10;;;;;;;14.03;81.54;98715.25;5115249;27;41768;-83
2023/09/23 06:48:53;;;;;;;1.10;1.07;;;;;;;14.21;80.97;98722.78;5132445;27;42181;-83
2023/09/23 06:51:21;;;;;;;1.63;0.80;;;;;;;14.47;79.87;98724.19;5133615;27;43300;-83
2023/09/23 06:53:48;;;;;;;1.20;0.90;;;;;;;15.06;78.29;98753.16;5114261;27;39311;-84
2023/09/23 06:56:16;;;;;;;0.70;0.60;;;;;;;15.94;74.87;98761.72;5115016;27;40567;-83
2023/09/23 06:58:43;;;;;;;2.17;0.70;;;;;;;17.22;70.23;98763.69;5132061;27;43793;-84
2023/09/23 07:01:11;;;;;;;0.70;0.70;;;;;;;19.14;63.70;98775.75;5133393;27;43733;-84
2023/09/23 07:03:40;;;;;;;0.73;0.73;;;;;;;21.39;57.20;98808.81;5132181;27;40710;-84
2023/09/23 07:06:09;;;;;;;1.60;1.07;;;;;;;23.48;52.06;98828.53;5133353;27;20205;-83
2023/09/23 07:08:36;;;;;;;2.87;0.90;;;;;;;24.98;48.62;98812.28;5131997;27;42455;-83
2023/09/23 07:11:04;;;;;;;1.03;0.80;;;;;;;26.20;46.09;98848.50;5115102;27;41237;-84
2023/09/23 07:13:31;;;;;;;2.47;0.83;;;;;;;27.02;44.26;98857.72;5132844;27;40367;-85
2023/09/23 07:15:59;;;;;;;0.67;0.67;;;;;;;27.52;42.10;98833.88;5133516;27;40439;-84
2023/09/23 07:18:26;;;;;;;0.90;0.80;;;;;;;28.17;40.12;98884.94;5133010;27;43844;-85
2023/09/23 07:20:57;;;;;;;0.90;0.70;;;;;;;27.84;40.90;98884.84;5133143;27;42220;-84
2023/09/23 07:23:25;;;;;;;0.70;0.70;;;;;;;27.27;41.42;98871.66;5134311;27;40604;-84
2023/09/23 07:25:53;;;;;;;1.57;0.90;;;;;;;26.82;40.97;98890.19;5133844;27;42053;-84
2023/09/23 07:28:20;;;;;;;2.77;0.93;;;;;;;26.44;41.71;98876.13;5113830;27;41231;-85
2023/09/23 07:30:48;;;;;;;3.37;0.87;;;;;;;26.32;41.84;98876.84;5131912;27;42206;-84
2023/09/23 07:33:15;;;;;;;0.83;0.73;;;;;;;26.55;42.28;98885.59;5132960;27;40075;-84
2023/09/23 07:35:43;;;;;;;1.33;0.83;;;;;;;26.92;40.69;98872.69;5131372;27;42103;-86
2023/09/23 07:38:12;;;;;;;2.10;0.70;;;;;;;26.72;40.42;98884.25;5113192;27;42058;-83
2023/09/23 07:40:41;;;;;;;0.83;0.80;;;;;;;26.44;40.95;98897.00;5131685;27;42249;-85
2023/09/23 07:43:09;;;;;;;0.80;0.80;;;;;;;26.93;40.09;98901.56;5131149;27;40037;-86
2023/09/23 07:45:36;;;;;;;1.00;0.53;;;;;;;26.63;39.51;98904.47;5114093;27;41930;-86
2023/09/23 07:48:05;;;;;;;0.80;0.70;;;;;;;25.74;41.29;98911.28;5132559;27;42800;-86
2023/09/23 07:50:33;;;;;;;0.60;0.60;;;;;;;24.82;42.60;98910.00;5130824;27;41611;-84
2023/09/23 07:53:00;;;;;;;2.77;0.73;;;;;;;24.05;44.01;98874.13;5113572;27;40735;-84
2023/09/23 07:55:30;;;;;;;1.37;0.80;;;;;;;23.44;44.55;98892.91;5131813;27;40392;-84
2023/09/23 07:57:57;;;;;;;0.80;0.60;;;;;;;22.94;46.11;98901.38;5113899;27;41927;-86
2023/09/23 08:00:25;;;;;;;2.33;0.90;;;;;;;22.26;46.36;98890.97;5130896;27;42229;-85
2023/09/23 08:02:53;;;;;;;1.03;0.80;;;;;;;21.92;47.78;98893.81;5132566;27;40103;-85
2023/09/23 08:05:23;;;;;;;1.80;0.90;;;;;;;22.22;47.66;98897.75;5113601;27;41743;-84
2023/09/23 08:07:52;;;;;;;0.60;0.60;;;;;;;22.98;47.02;98881.13;5131480;27;43871;-85
2023/09/23 08:10:20;;;;;;;1.60;1.20;;;;;;;23.38;46.51;98865.72;5113389;27;42601;-84
2023/09/23 08:12:49;;;;;;;0.87;0.73;;;;;;;24.19;46.20;98893.13;5132618;27;40173;-86
2023/09/23 08:15:16;;;;;;;1.00;0.90;;;;;;;24.55;45.95;98919.56;5133309;27;41731;-86
2023/09/23 08:17:44;;;;;;;1.07;0.70;;;;;;;24.72;44.18;98914.84;5114820;27;43376;-85
2023/09/23 08:20:17;;;;;;;0.77;0.70;;;;;;;24.89;44.20;98916.34;5114518;27;42449;-83
2023/09/23 08:22:45;;;;;;;0.93;0.70;;;;;;;26.12;41.57;98956.19;5115113;27;38773;-83
2023/09/23 08:25:13;;;;;;;3.17;0.97;;;;;;;27.17;40.30;98971.78;5133110;27;41902;-84
2023/09/23 08:27:41;;;;;;;1.53;1.20;;;;;;;28.68;36.82;98995.25;5131753;27;42915;-83
2023/09/23 08:30:12;;;;;;;3.50;1.07;;;;;;;29.26;35.08;98999.03;5131688;27;41583;-87
2023/09/23 08:32:40;;;;;;;1.97;1.00;;;;;;;28.71;35.63;99000.25;5129086;27;40890;-83
2023/09/23 08:35:08;;;;;;;1.10;1.00;;;;;;;29.58;35.59;98998.13;5131633;27;41919;-84
2023/09/23 08:37:35;;;;;;;1.43;0.80;;;;;;;28.77;35.62;99004.88;5132250;27;41643;-86
2023/09/23 08:40:07;;;;;;;1.40;0.87;;;;;;;27.98;36.49;99000.06;5131530;27;43015;-86
2023/09/23 08:42:35;;;;;;;0.90;0.90;;;;;;;29.12;35.62;99003.66;5118519;27;40468;-83
2023/09/23 08:45:07;;;;;;;0.70;0.70;;;;;;;29.43;34.86;99005.72;5147993;27;43034;-82
2023/09/23 08:47:36;;;;;;;1.53;0.67;;;;;;;28.73;35.97;98996.28;5121091;27;42387;-83
2023/09/23 08:50:06;;;;;;;0.80;0.80;;;;;;;28.48;35.81;98951.59;5116546;27;41645;-85
2023/09/23 08:52:34;;;;;;;1.77;0.73;;;;;;;28.75;35.85;98996.91;5116659;27;39889;-84
2023/09/23 08:55:03;;;;;;;1.10;1.00;;;;;;;29.02;35.29;99007.84;5133880;27;40890;-84
2023/09/23 08:57:31;;;;;;;0.90;0.73;;;;;;;30.20;33.90;99018.50;5133712;27;44150;-85
2023/09/23 08:59:58;;;;;;;1.50;0.90;;;;;;;30.35;32.75;99024.53;5133309;27;41527;-82
2023/09/23 09:02:26;;;;;;;0.80;0.70;;;;;;;30.79;32.88;99021.94;5116658;27;39182;-85
2023/09/23 09:04:57;;;;;;;1.87;0.90;;;;;;;29.59;34.33;99024.38;5115889;27;41712;-85
2023/09/23 09:07:26;;;;;;;0.93;0.80;;;;;;;28.74;33.82;99008.03;5133557;27;42158;-84
2023/09/23 09:09:54;;;;;;;0.57;0.53;;;;;;;28.73;34.67;99012.63;5115987;27;42393;-85
2023/09/23 09:12:21;;;;;;;0.63;0.50;;;;;;;28.30;35.09;99008.59;5133988;27;39205;-88
2023/09/23 09:14:51;;;;;;;0.80;0.80;;;;;;;27.46;36.20;99017.78;5117266;27;41374;-88
2023/09/23 09:17:19;;;;;;;1.00;0.60;;;;;;;26.66;37.17;98993.72;5134607;27;44382;-85
2023/09/23 09:19:46;;;;;;;0.53;0.53;;;;;;;25.91;38.29;98994.16;5135203;27;42230;-85
2023/09/23 09:22:16;;;;;;;2.20;0.60;;;;;;;25.26;38.89;98975.94;5117853;27;41509;-84
2023/09/23 09:24:46;;;;;;;0.80;0.60;;;;;;;24.88;39.68;98985.09;5134513;27;41096;-85
2023/09/23 09:27:14;;;;;;;2.93;0.60;;;;;;;24.39;41.01;98980.13;5134245;27;42967;-84
2023/09/23 09:29:42;;;;;;;1.73;0.50;;;;;;;24.26;41.24;98969.03;5117004;27;41305;-86
2023/09/23 09:32:11;;;;;;;1.17;0.70;;;;;;;24.53;41.92;98976.63;5134463;27;41078;-83
2023/09/23 09:34:45;;;;;;;0.63;0.57;;;;;;;24.81;40.37;98989.59;5134019;27;40380;-84
2023/09/23 09:37:14;;;;;;;1.60;0.70;;;;;;;24.72;40.77;98972.59;5133944;27;42220;-86
2023/09/23 09:39:51;;;;;;;1.40;0.60;;;;;;;24.39;40.60;98982.81;5116736;27;43746;-86
2023/09/23 09:42:24;;;;;;;1.17;0.60;;;;;;;23.93;42.03;98968.38;5130784;27;40192;-82
2023/09/23 09:44:54;;;;;;;0.90;0.70;;;;;;;23.84;42.48;98978.41;5129880;27;42994;-84
2023/09/23 09:47:22;;;;;;;1.07;0.57;;;;;;;23.52;42.81;98973.16;5115550;27;43029;-85
2023/09/23 09:49:52;;;;;;;1.30;0.67;;;;;;;23.45;42.80;98964.88;5115354;27;41719;-85
2023/09/23 09:52:22;;;;;;;2.73;0.70;;;;;;;23.61;42.80;98969.41;5115893;27;40252;-85
2023/09/23 09:54:54;;;;;;;1.10;0.80;;;;;;;23.75;43.03;98960.53;5115330;27;41038;-85
2023/09/23 09:57:22;;;;;;;2.70;1.20;;;;;;;23.84;42.21;98964.06;5132620;27;43539;-86
2023/09/23 09:59:51;;;;;;;3.00;1.83;;;;;;;23.96;42.31;98951.81;5131750;27;41723;-85
2023/09/23 10:02:21;;;;;;;4.20;2.13;;;;;;;23.70;42.54;98962.94;5133879;27;40143;-84
2023/09/23 10:04:49;;;;;;;5.00;1.80;;;;;;;23.42;42.50;98967.06;5114904;27;42222;-86
2023/09/23 10:07:17;;;;;;;2.87;1.60;;;;;;;22.97;41.94;98963.16;5132529;27;42769;-82
2023/09/23 10:09:54;;;;;;;2.47;1.90;;;;;;;22.81;42.86;98969.44;5132501;27;42412;-83
2023/09/23 10:12:26;;;;;;;2.00;1.50;;;;;;;22.73;42.85;98963.19;5115691;27;38915;-85
2023/09/23 10:14:55;;;;;;;1.03;0.80;;;;;;;22.64;43.06;98948.81;5133663;27;42712;-82
2023/09/23 10:17:30;;;;;;;1.90;1.07;;;;;;;22.54;43.21;98958.94;5116258;27;41976;-86
2023/09/23 10:19:58;;;;;;;1.20;0.80;;;;;;;22.46;43.93;98950.88;5115788;27;42397;-87
2023/09/23 10:22:29;;;;;;;0.77;0.70;;;;;;;22.21;43.71;98947.31;5117577;27;40069;-83
2023/09/23 10:25:04;;;;;;;1.40;0.90;;;;;;;22.13;44.27;98956.22;5133380;27;40641;-83
2023/09/23 10:27:33;;;;;;;1.73;0.80;;;;;;;23.92;42.28;98967.53;5116101;27;42828;-84
2023/09/23 10:30:01;;;;;;;1.80;0.80;;;;;;;26.64;39.10;98974.06;5115689;27;41202;-87
2023/09/23 10:32:28;;;;;;;1.30;1.10;;;;;;;29.19;35.23;99011.81;5116138;27;38921;-86
2023/09/23 10:34:56;;;;;;;1.70;0.80;;;;;;;31.34;32.19;99021.09;5116050;27;40625;-86
2023/09/23 10:37:29;;;;;;;1.50;1.00;;;;;;;32.57;30.32;99020.03;5133491;27;43771;-85
2023/09/23 10:40:00;;;;;;;1.33;0.60;;;;;;;32.88;29.65;99027.22;5116017;27;41257;-85
2023/09/23 10:42:33;;;;;;;1.67;0.87;;;;;;;31.57;30.07;99025.06;5131901;27;38956;-84
2023/09/23 10:45:01;;;;;;;0.70;0.70;;;;;;;30.01;31.59;99011.25;5131770;27;42537;-85
2023/09/23 10:47:28;;;;;;;1.20;0.80;;;;;;;28.72;33.33;98991.03;5114594;27;41724;-84
2023/09/23 10:49:56;;;;;;;2.00;0.80;;;;;;;27.61;34.32;99005.97;5131384;27;42769;-84
2023/09/23 10:52:24;;;;;;;1.67;0.93;;;;;;;26.45;36.03;98980.16;5131860;27;40293;-85
2023/09/23 10:54:53;;;;;;;1.63;0.70;;;;;;;25.67;36.89;99002.63;5132678;27;41598;-86
2023/09/23 10:57:21;;;;;;;0.90;0.60;;;;;;;25.00;37.80;98984.50;5131682;27;43011;-83
2023/09/23 10:59:50;;;;;;;0.93;0.60;;;;;;;24.80;38.89;98987.91;5131754;27;41707;-85
2023/09/23 11:02:20;;;;;;;0.70;0.60;;;;;;;25.63;40.11;98976.88;5114621;27;38884;-86
2023/09/23 11:04:48;;;;;;;1.20;0.80;;;;;;;25.72;38.86;98989.31;5131442;27;41869;-85
2023/09/23 11:07:16;;;;;;;4.00;0.73;;;;;;;25.33;38.35;98993.16;5114705;27;42063;-85
2023/09/23 11:09:45;;;;;;;0.83;0.63;;;;;;;24.81;39.11;98984.19;5114007;27;42096;-88
2023/09/23 11:12:13;;;;;;;0.83;0.57;;;;;;;24.49;39.51;98985.28;5131905;27;39929;-84
2023/09/23 11:14:43;;;;;;;0.90;0.70;;;;;;;24.05;40.82;98944.47;5115343;27;41211;-84
2023/09/23 11:17:25;;;;;;;2.27;0.73;;;;;;;24.06;40.85;98984.88;5132810;27;41902;-85
2023/09/23 11:19:54;;;;;;;1.37;0.50;;;;;;;23.79;40.36;98971.84;5115480;27;41684;-86
2023/09/23 11:22:26;;;;;;;1.73;0.90;;;;;;;23.74;41.30;98991.28;5115789;27;40554;-84
2023/09/23 11:24:55;;;;;;;1.43;0.60;;;;;;;23.71;41.69;98985.41;5128843;27;42114;-85
2023/09/23 11:27:25;;;;;;;2.37;0.70;;;;;;;23.61;41.69;98975.63;5131624;27;42962;-84
2023/09/23 11:29:55;;;;;;;1.80;0.67;;;;;;;23.75;41.07;98982.16;5114055;27;42492;-85
2023/09/23 11:32:26;;;;;;;1.07;0.50;;;;;;;23.82;42.05;98980.47;5113969;27;39147;-85
2023/09/23 11:34:55;;;;;;;0.63;0.60;;;;;;;23.86;41.44;98986.38;5113434;27;42639;-85
2023/09/23 11:37:24;;;;;;;1.00;0.73;;;;;;;23.98;42.19;98993.88;5114314;27;41689;-84
2023/09/23 11:39:52;;;;;;;1.23;0.67;;;;;;;23.86;42.03;98981.75;5114213;27;41445;-84
2023/09/23 11:42:21;;;;;;;1.30;0.67;;;;;;;23.89;41.45;98989.53;5131108;27;38604;-86